createdAt,value
2017-03-29T03:00:39.850Z,55
2017-03-29T03:01:05.427Z,55.38
2017-03-29T03:01:30.969Z,55.48
2017-03-29T03:01:56.526Z,55.29
2017-03-29T03:02:22.085Z,55.38
2017-03-29T03:02:47.739Z,55.19
2017-03-29T03:03:13.365Z,55.09
2017-03-29T03:03:38.948Z,55
2017-03-29T03:04:04.627Z,55.48
2017-03-29T03:04:30.165Z,55
2017-03-29T03:04:55.759Z,55.29
2017-03-29T03:05:21.315Z,54.8
2017-03-29T03:05:46.880Z,55.09
2017-03-29T03:06:12.472Z,55
2017-03-29T03:06:38.036Z,55
2017-03-29T03:07:03.730Z,55.09
2017-03-29T03:07:29.293Z,55
2017-03-29T03:07:54.942Z,55
2017-03-29T03:08:20.661Z,55
2017-03-29T03:08:46.207Z,55.09
2017-03-29T03:09:11.844Z,55.29
2017-03-29T03:09:37.539Z,55.09
2017-03-29T03:10:03.107Z,55.19
2017-03-29T03:10:28.682Z,55.09
2017-03-29T03:10:54.273Z,55.29
2017-03-29T03:11:19.918Z,55.09
2017-03-29T03:11:45.470Z,55.09
2017-03-29T03:12:11.021Z,55.29
2017-03-29T03:12:36.573Z,55.29
2017-03-29T03:13:02.137Z,55.09
2017-03-29T03:13:27.692Z,55.09
2017-03-29T03:13:53.260Z,55.09
2017-03-29T03:14:18.820Z,55.29
2017-03-29T03:14:44.365Z,55.09
2017-03-29T03:15:10.050Z,55.38
2017-03-29T03:15:35.602Z,55
2017-03-29T03:16:01.165Z,55.19
2017-03-29T03:16:26.739Z,55.19
2017-03-29T03:16:52.409Z,55.57
2017-03-29T03:17:17.941Z,55.38
2017-03-29T03:17:43.502Z,55.19
2017-03-29T03:18:09.059Z,55.57
2017-03-29T03:18:34.597Z,55.19
2017-03-29T03:19:00.150Z,55.09
2017-03-29T03:19:25.691Z,55.48
2017-03-29T03:19:51.260Z,55.38
2017-03-29T03:20:16.829Z,55.48
2017-03-29T03:20:42.388Z,55.38
2017-03-29T03:21:07.951Z,55.57
2017-03-29T03:21:33.521Z,55.38
2017-03-29T03:21:59.087Z,55.57
2017-03-29T03:22:24.657Z,55.48
2017-03-29T03:22:50.221Z,55.38
2017-03-29T03:23:15.787Z,55.48
2017-03-29T03:23:41.330Z,55.38
2017-03-29T03:24:06.896Z,55.48
2017-03-29T03:24:32.555Z,55.48
2017-03-29T03:24:58.130Z,55.09
2017-03-29T03:25:23.699Z,55.48
2017-03-29T03:25:49.271Z,55.38
2017-03-29T03:26:14.848Z,55.29
2017-03-29T03:26:40.433Z,55.57
2017-03-29T03:27:05.981Z,55.09
2017-03-29T03:27:31.538Z,55.57
2017-03-29T03:27:57.114Z,55.09
2017-03-29T03:28:22.694Z,55.19
2017-03-29T03:28:48.230Z,55.29
2017-03-29T03:29:13.773Z,55.48
2017-03-29T03:29:39.343Z,55.09
2017-03-29T03:30:04.904Z,55.19
2017-03-29T03:30:30.436Z,55.09
2017-03-29T03:30:56.088Z,55.29
2017-03-29T03:31:21.651Z,55.29
2017-03-29T03:31:47.219Z,55.29
2017-03-29T03:32:12.789Z,55.09
2017-03-29T03:32:38.349Z,55.09
2017-03-29T03:33:03.916Z,55.19
2017-03-29T03:33:29.491Z,55.19
2017-03-29T03:33:55.049Z,55.29
2017-03-29T03:34:20.611Z,55.29
2017-03-29T03:34:46.188Z,55.09
2017-03-29T03:35:11.751Z,55.29
2017-03-29T03:35:37.310Z,55.19
2017-03-29T03:36:03.004Z,55.19
2017-03-29T03:36:28.554Z,55.19
2017-03-29T03:36:54.108Z,55.19
2017-03-29T03:37:19.669Z,55.19
2017-03-29T03:37:45.304Z,55.19
2017-03-29T03:38:10.880Z,55.19
2017-03-29T03:38:36.419Z,55.19
2017-03-29T03:39:01.959Z,55
2017-03-29T03:39:27.526Z,55.09
2017-03-29T03:39:53.058Z,55.19
2017-03-29T03:40:18.610Z,54.9
2017-03-29T03:40:44.150Z,54.9
2017-03-29T03:41:09.711Z,54.9
2017-03-29T03:41:35.240Z,54.9
2017-03-29T03:42:00.770Z,55.09
2017-03-29T03:42:26.312Z,55.09
2017-03-29T03:42:51.881Z,54.9
2017-03-29T03:43:17.435Z,55.09
2017-03-29T03:43:42.990Z,55.09
2017-03-29T03:44:08.561Z,55.09
2017-03-29T03:44:34.118Z,55.09
2017-03-29T03:44:59.657Z,55.19
2017-03-29T03:45:25.300Z,55.38
2017-03-29T03:45:50.853Z,55.29
2017-03-29T03:46:16.416Z,55.09
2017-03-29T03:46:42.092Z,54.9
2017-03-29T03:47:07.637Z,55.19
2017-03-29T03:47:33.186Z,55.09
2017-03-29T03:47:58.908Z,55.19
2017-03-29T03:48:24.471Z,55.09
2017-03-29T03:48:50.016Z,55.38
2017-03-29T03:49:15.567Z,55.09
2017-03-29T03:50:24.278Z,55.09
2017-03-29T03:50:49.845Z,55.19
2017-03-29T03:51:15.419Z,55.09
2017-03-29T03:51:40.992Z,55.38
2017-03-29T03:52:06.597Z,55.09
2017-03-29T03:52:32.249Z,55
2017-03-29T03:52:58.010Z,55.38
2017-03-29T03:53:23.584Z,55.09
2017-03-29T03:53:49.165Z,55.29
2017-03-29T03:54:14.756Z,55.29
2017-03-29T03:54:40.341Z,55.48
2017-03-29T03:55:05.886Z,55.29
2017-03-29T03:55:31.459Z,55.29
2017-03-29T03:55:57.024Z,55.19
2017-03-29T03:56:22.580Z,55.29
2017-03-29T03:56:48.160Z,55.38
2017-03-29T03:57:13.709Z,55.38
2017-03-29T03:57:39.272Z,55.38
2017-03-29T03:58:04.844Z,55.48
2017-03-29T03:58:30.411Z,55.29
2017-03-29T03:58:55.969Z,55.48
2017-03-29T03:59:21.550Z,54.9
2017-03-29T03:59:47.106Z,55.48
2017-03-29T04:00:12.677Z,55.19
2017-03-29T04:00:38.241Z,55.48
2017-03-29T04:01:03.813Z,55.29
2017-03-29T04:01:29.391Z,55.38
2017-03-29T04:01:54.942Z,55.38
2017-03-29T04:02:20.626Z,55.09
2017-03-29T04:02:46.227Z,55.09
2017-03-29T04:03:11.789Z,55
2017-03-29T04:03:37.431Z,55.38
2017-03-29T04:04:02.994Z,55.09
2017-03-29T04:04:28.621Z,55.48
2017-03-29T04:04:54.189Z,55.19
2017-03-29T04:05:19.851Z,55.38
2017-03-29T04:05:45.436Z,55.38
2017-03-29T04:06:11.004Z,55.09
2017-03-29T04:06:36.631Z,55.38
2017-03-29T04:07:02.259Z,55.38
2017-03-29T04:07:27.820Z,55.48
2017-03-29T04:07:53.386Z,55.48
2017-03-29T04:08:18.937Z,55.38
2017-03-29T04:08:44.520Z,55.29
2017-03-29T04:09:10.077Z,55.09
2017-03-29T04:09:35.625Z,55.38
2017-03-29T04:10:01.187Z,55.38
2017-03-29T04:10:26.802Z,55.48
2017-03-29T04:10:52.382Z,55.48
2017-03-29T04:11:17.950Z,55.19
2017-03-29T04:11:43.521Z,55.57
2017-03-29T04:12:09.100Z,55.57
2017-03-29T04:12:34.658Z,55.19
2017-03-29T04:13:00.227Z,55.38
2017-03-29T04:13:25.782Z,55.38
2017-03-29T04:13:51.350Z,55.29
2017-03-29T04:14:16.894Z,55.38
2017-03-29T04:14:42.459Z,55.38
2017-03-29T04:15:08.025Z,55.48
2017-03-29T04:15:33.601Z,55.38
2017-03-29T04:15:59.152Z,55.57
2017-03-29T04:16:24.737Z,55.48
2017-03-29T04:16:50.291Z,55.48
2017-03-29T04:17:15.865Z,55.87
2017-03-29T04:17:41.438Z,55.57
2017-03-29T04:18:06.999Z,55.87
2017-03-29T04:18:32.569Z,55.87
2017-03-29T04:18:58.149Z,55.87
2017-03-29T04:19:23.698Z,55.93
2017-03-29T04:19:49.257Z,56.05
2017-03-29T04:20:14.933Z,56.05
2017-03-29T04:20:40.495Z,56.05
2017-03-29T04:21:06.073Z,55.87
2017-03-29T04:21:31.633Z,56.05
2017-03-29T04:21:57.219Z,56.05
2017-03-29T04:22:22.778Z,55.96
2017-03-29T04:22:48.331Z,56.05
2017-03-29T04:23:13.893Z,56.15
2017-03-29T04:23:39.449Z,56.15
2017-03-29T04:24:05.087Z,55.87
2017-03-29T04:24:30.714Z,55.96
2017-03-29T04:24:56.283Z,55.87
2017-03-29T04:25:21.841Z,56.05
2017-03-29T04:25:47.399Z,56.05
2017-03-29T04:26:12.971Z,55.96
2017-03-29T04:26:38.541Z,56.05
2017-03-29T04:27:04.122Z,56.05
2017-03-29T04:27:29.680Z,55.67
2017-03-29T04:27:55.276Z,55.87
2017-03-29T04:28:20.841Z,55.67
2017-03-29T04:28:46.412Z,55.77
2017-03-29T04:29:11.980Z,55.87
2017-03-29T04:29:37.551Z,55.87
2017-03-29T04:30:03.118Z,55.96
2017-03-29T04:30:28.677Z,55.87
2017-03-29T04:30:54.245Z,55.87
2017-03-29T04:31:19.809Z,55.96
2017-03-29T04:31:45.370Z,55.87
2017-03-29T04:32:11.023Z,55.87
2017-03-29T04:32:36.588Z,55.87
2017-03-29T04:33:02.149Z,55.87
2017-03-29T04:33:27.802Z,55.87
2017-03-29T04:33:53.373Z,55.87
2017-03-29T04:34:18.943Z,55.96
2017-03-29T04:34:44.505Z,56.05
2017-03-29T04:35:10.084Z,55.96
2017-03-29T04:35:35.656Z,56.05
2017-03-29T04:36:01.220Z,55.87
2017-03-29T04:36:26.770Z,55.96
2017-03-29T04:36:52.318Z,55.96
2017-03-29T04:37:17.875Z,55.87
2017-03-29T04:37:43.461Z,55.87
2017-03-29T04:38:09.158Z,55.87
2017-03-29T04:38:34.724Z,55.77
2017-03-29T04:39:00.280Z,55.87
2017-03-29T04:39:25.855Z,55.87
2017-03-29T04:39:51.413Z,55.87
2017-03-29T04:40:16.982Z,55.96
2017-03-29T04:40:42.583Z,55.77
2017-03-29T04:41:08.149Z,55.87
2017-03-29T04:41:33.808Z,55.77
2017-03-29T04:41:59.395Z,56.05
2017-03-29T04:42:24.971Z,55.87
2017-03-29T04:42:50.555Z,55.87
2017-03-29T04:43:16.164Z,55.96
2017-03-29T04:43:41.714Z,55.77
2017-03-29T04:44:07.284Z,55.67
2017-03-29T04:44:32.919Z,55.67
2017-03-29T04:44:58.518Z,55.87
2017-03-29T04:45:24.094Z,55.57
2017-03-29T04:45:49.669Z,56.15
2017-03-29T04:46:15.262Z,55.87
2017-03-29T04:46:40.836Z,55.87
2017-03-29T04:47:06.387Z,56.05
2017-03-29T04:47:31.976Z,56.05
2017-03-29T04:47:57.551Z,55.87
2017-03-29T04:48:23.145Z,56.05
2017-03-29T04:48:48.700Z,56.05
2017-03-29T04:49:14.275Z,55.96
2017-03-29T04:49:39.860Z,55.87
2017-03-29T04:50:05.541Z,56.05
2017-03-29T04:50:31.095Z,55.87
2017-03-29T04:50:56.650Z,56.05
2017-03-29T04:51:22.238Z,55.87
2017-03-29T04:51:47.830Z,55.96
2017-03-29T04:52:13.400Z,56.05
2017-03-29T04:52:38.968Z,56.05
2017-03-29T04:53:04.538Z,56.05
2017-03-29T04:53:30.124Z,55.96
2017-03-29T04:53:55.697Z,56.05
2017-03-29T04:54:21.260Z,55.87
2017-03-29T04:54:46.841Z,56.15
2017-03-29T04:55:12.422Z,55.87
2017-03-29T04:55:37.991Z,55.87
2017-03-29T04:56:03.585Z,56.05
2017-03-29T04:56:29.151Z,55.57
2017-03-29T04:56:54.719Z,56.05
2017-03-29T04:57:20.280Z,55.96
2017-03-29T04:57:45.853Z,56.05
2017-03-29T04:58:11.411Z,56.05
2017-03-29T04:58:37.032Z,56.05
2017-03-29T04:59:02.594Z,56.15
2017-03-29T04:59:28.156Z,55.87
2017-03-29T04:59:53.731Z,55.87
2017-03-29T05:00:19.287Z,55.96
2017-03-29T05:00:44.861Z,55.96
2017-03-29T05:01:10.454Z,55.87
2017-03-29T05:01:36.028Z,55.67
2017-03-29T05:02:01.604Z,55.87
2017-03-29T05:02:27.181Z,55.67
2017-03-29T05:02:52.750Z,55.87
2017-03-29T05:03:18.307Z,55.67
2017-03-29T05:03:43.870Z,55.67
2017-03-29T05:04:09.441Z,55.77
2017-03-29T05:04:35.021Z,55.87
2017-03-29T05:05:00.581Z,55.77
2017-03-29T05:05:26.151Z,55.87
2017-03-29T05:05:51.712Z,55.87
2017-03-29T05:06:17.309Z,55.77
2017-03-29T05:06:42.882Z,55.87
2017-03-29T05:07:08.449Z,55.87
2017-03-29T05:07:34.012Z,55.96
2017-03-29T05:07:59.590Z,55.87
2017-03-29T05:08:25.153Z,55.96
2017-03-29T05:08:50.709Z,55.87
2017-03-29T05:09:16.274Z,55.77
2017-03-29T05:09:41.849Z,55.96
2017-03-29T05:10:07.414Z,55.96
2017-03-29T05:10:32.985Z,55.87
2017-03-29T05:10:58.612Z,55.83
2017-03-29T05:11:24.183Z,55.87
2017-03-29T05:11:49.741Z,55.77
2017-03-29T05:12:58.603Z,55.77
2017-03-29T05:13:24.157Z,55.96
2017-03-29T05:13:49.776Z,55.87
2017-03-29T05:14:15.334Z,55.87
2017-03-29T05:14:40.896Z,55.77
2017-03-29T05:15:06.451Z,55.83
2017-03-29T05:15:32.008Z,55.96
2017-03-29T05:15:57.558Z,55.87
2017-03-29T05:16:23.109Z,55.93
2017-03-29T05:16:48.660Z,55.87
2017-03-29T05:17:14.222Z,55.87
2017-03-29T05:17:39.919Z,55.96
2017-03-29T05:18:05.489Z,56.05
2017-03-29T05:18:31.050Z,55.87
2017-03-29T05:18:56.711Z,56.05
2017-03-29T05:19:22.300Z,56.05
2017-03-29T05:19:47.855Z,55.67
2017-03-29T05:20:13.418Z,55.48
2017-03-29T05:20:39.021Z,55.38
2017-03-29T05:21:04.637Z,55.77
2017-03-29T05:21:30.190Z,55.09
2017-03-29T05:21:55.749Z,55.38
2017-03-29T05:22:21.326Z,55.38
2017-03-29T05:22:46.909Z,55.09
2017-03-29T05:23:12.469Z,55.57
2017-03-29T05:23:38.033Z,55.38
2017-03-29T05:24:03.591Z,55.19
2017-03-29T05:24:29.178Z,55.29
2017-03-29T05:24:55.608Z,55.38
2017-03-29T05:25:21.264Z,55.38
2017-03-29T05:25:48.718Z,55.29
2017-03-29T05:26:14.265Z,55.19
2017-03-29T05:26:40.196Z,55.57
2017-03-29T05:27:05.728Z,55.38
2017-03-29T05:27:31.272Z,55.57
2017-03-29T05:27:56.824Z,55.38
2017-03-29T05:28:22.383Z,55.29
2017-03-29T05:28:47.958Z,55.48
2017-03-29T05:29:13.510Z,55.29
2017-03-29T05:29:39.077Z,55.38
2017-03-29T05:30:04.655Z,55.29
2017-03-29T05:30:30.227Z,55.38
2017-03-29T05:31:28.719Z,55.38
2017-03-29T05:31:54.341Z,55.57
2017-03-29T05:32:19.927Z,55.48
2017-03-29T05:32:45.476Z,55.38
2017-03-29T05:33:11.145Z,55.38
2017-03-29T05:33:36.731Z,55.38
2017-03-29T05:34:02.302Z,55.48
2017-03-29T05:34:27.896Z,55.55
2017-03-29T05:34:53.468Z,55.48
2017-03-29T05:35:19.043Z,55.38
2017-03-29T05:35:44.729Z,55.38
2017-03-29T05:36:10.315Z,55.38
2017-03-29T05:36:35.894Z,55.38
2017-03-29T05:37:01.529Z,55.67
2017-03-29T05:37:27.099Z,55.29
2017-03-29T05:37:52.671Z,55.38
2017-03-29T05:38:18.236Z,55.48
2017-03-29T05:38:43.798Z,55.38
2017-03-29T05:39:09.385Z,55.29
2017-03-29T05:39:34.952Z,55.35
2017-03-29T05:40:00.516Z,55.38
2017-03-29T05:40:26.091Z,55.26
2017-03-29T05:40:51.677Z,55.38
2017-03-29T05:41:17.240Z,55.38
2017-03-29T05:41:42.809Z,55.38
2017-03-29T05:42:08.375Z,55.48
2017-03-29T05:42:33.945Z,55.38
2017-03-29T05:42:59.554Z,55.38
2017-03-29T05:43:25.114Z,55.29
2017-03-29T05:43:50.670Z,55.38
2017-03-29T05:44:17.295Z,55.48
2017-03-29T05:44:43.562Z,55.38
2017-03-29T05:45:09.564Z,55.67
2017-03-29T05:45:35.188Z,55.48
2017-03-29T05:46:00.730Z,55.48
2017-03-29T05:46:26.297Z,55.48
2017-03-29T05:46:51.845Z,55.48
2017-03-29T05:47:17.402Z,55.87
2017-03-29T05:47:43.000Z,55.96
2017-03-29T05:48:08.547Z,56.05
2017-03-29T05:48:34.100Z,55.87
2017-03-29T05:48:59.679Z,55.87
2017-03-29T05:49:25.214Z,55.87
2017-03-29T05:49:50.814Z,55.87
2017-03-29T05:50:16.351Z,55.87
2017-03-29T05:50:41.969Z,55.67
2017-03-29T05:51:07.506Z,55.77
2017-03-29T05:51:33.051Z,55.87
2017-03-29T05:51:58.645Z,55.87
2017-03-29T05:52:24.217Z,55.87
2017-03-29T05:52:49.807Z,55.74
2017-03-29T05:53:15.380Z,55.77
2017-03-29T05:53:40.943Z,55.87
2017-03-29T05:54:06.499Z,55.77
2017-03-29T05:54:32.066Z,56.03
2017-03-29T05:54:57.624Z,56.05
2017-03-29T05:55:23.316Z,56.05
2017-03-29T05:55:48.864Z,55.74
2017-03-29T05:56:14.420Z,55.87
2017-03-29T05:56:39.986Z,55.77
2017-03-29T05:57:05.553Z,56.05
2017-03-29T05:57:31.115Z,55.77
2017-03-29T05:57:56.656Z,55.77
2017-03-29T05:58:22.242Z,56.05
2017-03-29T05:58:47.804Z,55.87
2017-03-29T05:59:13.368Z,55.77
2017-03-29T05:59:38.941Z,56.05
2017-03-29T06:00:04.500Z,55.87
2017-03-29T06:01:18.045Z,56.05
2017-03-29T06:01:43.687Z,55.87
2017-03-29T06:02:09.259Z,55.87
2017-03-29T06:02:34.792Z,56.05
2017-03-29T06:03:48.322Z,55.87
2017-03-29T06:04:13.875Z,55.87
2017-03-29T06:04:39.446Z,56.05
2017-03-29T06:05:05.001Z,55.83
2017-03-29T06:05:30.620Z,55.96
2017-03-29T06:05:56.171Z,55.77
2017-03-29T06:06:21.717Z,55.77
2017-03-29T06:06:47.257Z,55.87
2017-03-29T06:07:12.927Z,55.77
2017-03-29T06:07:38.486Z,56.03
2017-03-29T06:08:04.070Z,56.05
2017-03-29T06:08:29.628Z,55.96
2017-03-29T06:08:55.302Z,55.87
2017-03-29T06:09:20.866Z,55.77
2017-03-29T06:09:46.413Z,55.87
2017-03-29T06:10:12.047Z,55.77
2017-03-29T06:10:37.596Z,55.87
2017-03-29T06:11:03.127Z,55.77
2017-03-29T06:11:29.309Z,55.87
2017-03-29T06:11:54.877Z,55.77
2017-03-29T06:12:20.416Z,55.87
2017-03-29T06:12:45.967Z,55.77
2017-03-29T06:13:11.546Z,55.65
2017-03-29T06:13:37.131Z,55.77
2017-03-29T06:14:02.686Z,55.77
2017-03-29T06:14:28.209Z,55.77
2017-03-29T06:14:53.753Z,55.87
2017-03-29T06:15:19.320Z,55.83
2017-03-29T06:15:44.933Z,55.87
2017-03-29T06:16:10.516Z,56.05
2017-03-29T06:16:36.060Z,55.83
2017-03-29T06:17:01.628Z,55.96
2017-03-29T06:17:27.232Z,55.87
2017-03-29T06:17:53.220Z,55.77
2017-03-29T06:18:18.777Z,55.96
2017-03-29T06:18:44.330Z,55.96
2017-03-29T06:19:09.979Z,56.05
2017-03-29T06:19:35.542Z,56.05
2017-03-29T06:20:01.087Z,56.05
2017-03-29T06:20:26.644Z,56.05
2017-03-29T06:20:52.194Z,56.05
2017-03-29T06:21:17.762Z,56.05
2017-03-29T06:21:43.317Z,56.05
2017-03-29T06:22:08.876Z,56.05
2017-03-29T06:22:34.421Z,55.96
2017-03-29T06:22:59.955Z,56.03
2017-03-29T06:23:25.501Z,55.77
2017-03-29T06:23:51.030Z,55.67
2017-03-29T06:24:16.587Z,55.87
2017-03-29T06:24:42.152Z,55.87
2017-03-29T06:25:07.690Z,55.67
2017-03-29T06:25:33.245Z,56.25
2017-03-29T06:25:58.797Z,56.05
2017-03-29T06:26:24.352Z,55.87
2017-03-29T06:26:49.909Z,55.96
2017-03-29T06:27:15.479Z,55.77
2017-03-29T06:27:41.029Z,55.96
2017-03-29T06:28:06.613Z,56.05
2017-03-29T06:28:32.219Z,55.96
2017-03-29T06:28:57.785Z,56.05
2017-03-29T06:29:23.352Z,55.96
2017-03-29T06:29:48.921Z,55.96
2017-03-29T06:30:14.501Z,55.96
2017-03-29T06:31:13.151Z,55.96
2017-03-29T06:31:38.701Z,55.96
2017-03-29T06:32:04.288Z,56.05
2017-03-29T06:32:29.838Z,55.87
2017-03-29T06:32:55.386Z,55.67
2017-03-29T06:33:20.949Z,55.87
2017-03-29T06:33:46.485Z,55.67
2017-03-29T06:34:12.082Z,55.67
2017-03-29T06:34:37.687Z,55.67
2017-03-29T06:35:03.245Z,55.87
2017-03-29T06:35:28.807Z,55.87
2017-03-29T06:35:54.368Z,55.74
2017-03-29T06:36:19.907Z,55.96
2017-03-29T06:36:45.470Z,55.96
2017-03-29T06:37:11.036Z,55.57
2017-03-29T06:37:36.622Z,56.05
2017-03-29T06:38:02.285Z,55.87
2017-03-29T06:38:27.834Z,55.83
2017-03-29T06:38:53.359Z,55.87
2017-03-29T06:39:19.113Z,55.87
2017-03-29T06:39:44.730Z,56.05
2017-03-29T06:40:10.282Z,55.96
2017-03-29T06:40:35.939Z,56.05
2017-03-29T06:41:01.489Z,56.05
2017-03-29T06:41:27.050Z,56.05
2017-03-29T06:41:52.621Z,55.77
2017-03-29T06:42:18.225Z,56.05
2017-03-29T06:42:43.781Z,55.87
2017-03-29T06:43:09.349Z,56.05
2017-03-29T06:43:34.926Z,55.87
2017-03-29T06:44:00.508Z,55.87
2017-03-29T06:44:26.083Z,55.93
2017-03-29T06:44:51.616Z,56.05
2017-03-29T06:45:17.171Z,56.05
2017-03-29T06:45:42.729Z,56.05
2017-03-29T06:46:08.519Z,55.87
2017-03-29T06:46:34.074Z,55.96
2017-03-29T06:46:59.652Z,56.05
2017-03-29T06:47:25.278Z,56.05
2017-03-29T06:47:50.828Z,56.05
2017-03-29T06:48:16.405Z,56.05
2017-03-29T06:48:41.989Z,56.15
2017-03-29T06:49:07.576Z,56.05
2017-03-29T06:49:33.126Z,55.96
2017-03-29T06:49:58.673Z,55.96
2017-03-29T06:50:24.238Z,55.96
2017-03-29T06:50:49.803Z,55.96
2017-03-29T06:51:15.380Z,56.15
2017-03-29T06:51:40.931Z,56.15
2017-03-29T06:52:06.502Z,56.15
2017-03-29T06:52:32.055Z,56.15
2017-03-29T06:52:57.604Z,56.15
2017-03-29T06:53:23.254Z,56.03
2017-03-29T06:53:48.857Z,56.15
2017-03-29T06:54:14.415Z,56.15
2017-03-29T06:54:39.987Z,56.15
2017-03-29T06:55:05.534Z,55.87
2017-03-29T06:55:31.099Z,55.96
2017-03-29T06:55:56.657Z,55.96
2017-03-29T06:56:22.200Z,56.15
2017-03-29T06:56:47.744Z,55.96
2017-03-29T06:57:13.370Z,55.96
2017-03-29T06:57:38.920Z,56.25
2017-03-29T06:58:04.477Z,56.25
2017-03-29T06:58:30.065Z,56.25
2017-03-29T06:58:55.632Z,56.35
2017-03-29T06:59:21.198Z,56.25
2017-03-29T06:59:46.745Z,56.15
2017-03-29T07:00:12.343Z,56.15
2017-03-29T07:00:37.948Z,56.35
2017-03-29T07:01:03.504Z,56.25
2017-03-29T07:01:29.077Z,56.25
2017-03-29T07:01:54.676Z,56.25
2017-03-29T07:02:20.377Z,56.35
2017-03-29T07:02:45.921Z,56.35
2017-03-29T07:03:11.482Z,56.15
2017-03-29T07:03:37.115Z,56.12
2017-03-29T07:04:02.737Z,56.25
2017-03-29T07:04:28.315Z,55.96
2017-03-29T07:04:53.900Z,56.35
2017-03-29T07:05:19.518Z,56.35
2017-03-29T07:05:45.038Z,56.35
2017-03-29T07:06:10.602Z,56.35
2017-03-29T07:06:36.151Z,56.25
2017-03-29T07:07:01.706Z,56.25
2017-03-29T07:07:27.260Z,56.15
2017-03-29T07:07:52.826Z,56.32
2017-03-29T07:08:18.379Z,56.25
2017-03-29T07:08:43.926Z,56.25
2017-03-29T07:09:09.545Z,56.15
2017-03-29T07:09:35.102Z,56.15
2017-03-29T07:10:00.697Z,56.15
2017-03-29T07:10:26.250Z,56.15
2017-03-29T07:10:51.831Z,56.25
2017-03-29T07:11:17.542Z,56.35
2017-03-29T07:11:43.108Z,56.44
2017-03-29T07:12:08.647Z,56.25
2017-03-29T07:12:34.272Z,56.35
2017-03-29T07:12:59.853Z,56.25
2017-03-29T07:13:25.409Z,56.25
2017-03-29T07:13:51.086Z,56.15
2017-03-29T07:14:16.643Z,56.35
2017-03-29T07:14:42.191Z,56.44
2017-03-29T07:15:07.771Z,56.54
2017-03-29T07:15:33.350Z,56.54
2017-03-29T07:15:58.912Z,56.54
2017-03-29T07:16:24.505Z,56.54
2017-03-29T07:16:50.058Z,56.35
2017-03-29T07:17:15.670Z,56.35
2017-03-29T07:17:41.327Z,56.44
2017-03-29T07:18:06.895Z,57.02
2017-03-29T07:18:32.451Z,56.44
2017-03-29T07:18:58.071Z,56.54
2017-03-29T07:19:23.628Z,56.54
2017-03-29T07:19:49.179Z,56.44
2017-03-29T07:20:14.856Z,57.02
2017-03-29T07:20:40.402Z,56.54
2017-03-29T07:21:05.981Z,57.02
2017-03-29T07:21:31.518Z,57.12
2017-03-29T07:21:57.074Z,57.12
2017-03-29T07:22:22.628Z,56.44
2017-03-29T07:22:48.218Z,56.63
2017-03-29T07:23:13.846Z,57.02
2017-03-29T07:23:39.409Z,57.02
2017-03-29T07:24:05.015Z,56.82
2017-03-29T07:24:30.568Z,56.82
2017-03-29T07:24:56.160Z,56.82
2017-03-29T07:25:21.746Z,57.02
2017-03-29T07:25:47.291Z,56.92
2017-03-29T07:26:12.848Z,56.92
2017-03-29T07:26:38.467Z,56.92
2017-03-29T07:27:04.017Z,56.92
2017-03-29T07:27:29.566Z,56.92
2017-03-29T07:27:55.164Z,56.92
2017-03-29T07:28:20.725Z,56.9
2017-03-29T07:28:46.291Z,56.92
2017-03-29T07:29:11.832Z,56.92
2017-03-29T07:29:37.394Z,56.92
2017-03-29T07:30:02.935Z,56.82
2017-03-29T07:30:28.588Z,56.92
2017-03-29T07:30:54.151Z,56.92
2017-03-29T07:31:19.715Z,56.92
2017-03-29T07:31:45.310Z,56.82
2017-03-29T07:32:10.862Z,56.92
2017-03-29T07:32:36.433Z,56.82
2017-03-29T07:33:01.986Z,56.9
2017-03-29T07:33:27.549Z,56.82
2017-03-29T07:33:53.183Z,56.82
2017-03-29T07:34:18.746Z,56.82
2017-03-29T07:34:44.315Z,56.82
2017-03-29T07:35:09.868Z,56.82
2017-03-29T07:35:35.439Z,56.82
2017-03-29T07:36:00.990Z,56.92
2017-03-29T07:36:26.556Z,56.82
2017-03-29T07:36:52.142Z,56.82
2017-03-29T07:37:17.707Z,56.92
2017-03-29T07:37:43.259Z,56.82
2017-03-29T07:38:08.816Z,56.82
2017-03-29T07:39:02.160Z,56.63
2017-03-29T07:39:55.155Z,56.92
2017-03-29T07:40:20.720Z,56.82
2017-03-29T07:40:46.320Z,56.82
2017-03-29T07:41:11.870Z,56.82
2017-03-29T07:41:37.441Z,56.82
2017-03-29T07:42:02.979Z,56.63
2017-03-29T07:42:28.543Z,56.82
2017-03-29T07:42:54.232Z,56.63
2017-03-29T07:43:19.800Z,56.44
2017-03-29T07:43:45.347Z,56.63
2017-03-29T07:44:10.886Z,56.82
2017-03-29T07:44:36.544Z,56.82
2017-03-29T07:45:02.116Z,56.63
2017-03-29T07:45:27.649Z,56.82
2017-03-29T07:45:53.198Z,56.82
2017-03-29T07:46:18.852Z,56.82
2017-03-29T07:46:44.448Z,56.63
2017-03-29T07:47:09.993Z,56.54
2017-03-29T07:47:35.528Z,56.92
2017-03-29T07:48:01.067Z,56.63
2017-03-29T07:48:26.612Z,56.63
2017-03-29T07:48:52.299Z,56.63
2017-03-29T07:49:17.961Z,56.92
2017-03-29T07:49:43.521Z,56.92
2017-03-29T07:50:09.086Z,57.02
2017-03-29T07:50:34.661Z,57.02
2017-03-29T07:51:00.366Z,57.02
2017-03-29T07:51:25.910Z,57.02
2017-03-29T07:51:51.454Z,57.12
2017-03-29T07:52:16.999Z,57.02
2017-03-29T07:52:42.538Z,57.02
2017-03-29T07:53:08.096Z,57.12
2017-03-29T07:53:33.688Z,57.12
2017-03-29T07:53:59.288Z,57.02
2017-03-29T07:54:24.847Z,57.12
2017-03-29T07:54:50.413Z,57.02
2017-03-29T07:55:15.967Z,56.73
2017-03-29T07:55:41.534Z,57.02
2017-03-29T07:56:07.132Z,57.12
2017-03-29T07:56:32.767Z,56.92
2017-03-29T07:56:58.358Z,56.92
2017-03-29T07:57:23.949Z,57.02
2017-03-29T07:57:49.514Z,57.02
2017-03-29T07:58:15.286Z,56.92
2017-03-29T07:58:40.903Z,57.12
2017-03-29T07:59:06.456Z,57.21
2017-03-29T07:59:32.032Z,57.31
2017-03-29T07:59:57.576Z,56.63
2017-03-29T08:00:23.139Z,57.12
2017-03-29T08:00:48.794Z,57.21
2017-03-29T08:01:14.383Z,57.31
2017-03-29T08:01:39.972Z,57.12
2017-03-29T08:02:05.548Z,57.31
2017-03-29T08:02:31.086Z,57.31
2017-03-29T08:02:56.658Z,57.31
2017-03-29T08:03:22.214Z,57.12
2017-03-29T08:03:47.768Z,56.92
2017-03-29T08:04:13.347Z,57.12
2017-03-29T08:04:38.916Z,56.92
2017-03-29T08:05:04.471Z,57.31
2017-03-29T08:05:30.056Z,57.21
2017-03-29T08:05:55.612Z,57.31
2017-03-29T08:06:21.183Z,57.28
2017-03-29T08:06:46.785Z,57.31
2017-03-29T08:07:12.398Z,57.31
2017-03-29T08:07:37.970Z,57.12
2017-03-29T08:08:03.499Z,57.31
2017-03-29T08:08:29.054Z,57.12
2017-03-29T08:08:54.668Z,56.92
2017-03-29T08:09:20.234Z,57.31
2017-03-29T08:09:45.810Z,57.02
2017-03-29T08:10:11.395Z,57.12
2017-03-29T08:10:36.970Z,57.02
2017-03-29T08:11:02.517Z,57.02
2017-03-29T08:11:28.066Z,57.02
2017-03-29T08:11:53.631Z,57.12
2017-03-29T08:12:19.308Z,57.21
2017-03-29T08:12:44.859Z,57.12
2017-03-29T08:13:10.583Z,56.92
2017-03-29T08:13:36.137Z,57.21
2017-03-29T08:14:01.703Z,57.12
2017-03-29T08:14:27.266Z,57.12
2017-03-29T08:14:52.803Z,57.12
2017-03-29T08:15:18.388Z,57.12
2017-03-29T08:15:43.946Z,57.12
2017-03-29T08:16:09.542Z,57.12
2017-03-29T08:16:35.110Z,57.21
2017-03-29T08:17:00.665Z,57.21
2017-03-29T08:17:26.260Z,57.02
2017-03-29T08:17:51.839Z,57.12
2017-03-29T08:18:17.396Z,57.02
2017-03-29T08:18:43.035Z,57.02
2017-03-29T08:19:08.662Z,57.21
2017-03-29T08:19:34.228Z,57.21
2017-03-29T08:19:59.779Z,57.02
2017-03-29T08:20:25.340Z,57.02
2017-03-29T08:20:50.880Z,57.18
2017-03-29T08:21:16.467Z,57.31
2017-03-29T08:21:42.014Z,57.21
2017-03-29T08:22:07.587Z,57.21
2017-03-29T08:22:33.159Z,57.12
2017-03-29T08:22:58.730Z,57.12
2017-03-29T08:23:24.284Z,57.4
2017-03-29T08:23:49.855Z,57.21
2017-03-29T08:24:15.392Z,57.31
2017-03-29T08:24:41.043Z,57.4
2017-03-29T08:25:39.504Z,57.21
2017-03-29T08:26:05.081Z,57.4
2017-03-29T08:26:30.814Z,57.4
2017-03-29T08:26:56.357Z,57.21
2017-03-29T08:27:21.897Z,57.4
2017-03-29T08:27:47.446Z,57.4
2017-03-29T08:28:13.170Z,57.31
2017-03-29T08:28:38.719Z,57.21
2017-03-29T08:29:04.281Z,57.09
2017-03-29T08:29:29.837Z,57.4
2017-03-29T08:29:55.391Z,57.4
2017-03-29T08:30:21.039Z,57.28
2017-03-29T08:30:46.585Z,57.4
2017-03-29T08:31:12.149Z,57.4
2017-03-29T08:31:37.705Z,57.28
2017-03-29T08:32:03.276Z,57.4
2017-03-29T08:32:28.845Z,57.4
2017-03-29T08:32:54.390Z,57.21
2017-03-29T08:33:19.978Z,57.31
2017-03-29T08:33:45.532Z,57.12
2017-03-29T08:34:11.148Z,57.12
2017-03-29T08:34:36.679Z,57.37
2017-03-29T08:35:02.235Z,57.21
2017-03-29T08:35:27.776Z,57.47
2017-03-29T08:35:53.447Z,57.21
2017-03-29T08:36:18.995Z,57.12